sensor_id;sensor_type;location;lat;lon;timestamp;temperature;humidity
12303;DHT22;6214;48.012;7.862;2023-08-01T00:02:20;21.40;99.90
12303;DHT22;6214;48.012;7.862;2023-08-01T00:04:47;21.40;99.90
12303;DHT22;6214;48.012;7.862;2023-08-01T00:07:14;21.40;99.90
12303;DHT22;6214;48.012;7.862;2023-08-01T00:09:41;21.30;99.90
12303;DHT22;6214;48.012;7.862;2023-08-01T00:12:08;21.30;99.90
12303;DHT22;6214;48.012;7.862;2023-08-01T00:14:36;21.30;99.90
12303;DHT22;6214;48.012;7.862;2023-08-01T00:17:03;21.20;99.90
12303;DHT22;6214;48.012;7.862;2023-08-01T00:19:30;21.20;99.90
12303;DHT22;6214;48.012;7.862;2023-08-01T00:21:57;21.30;99.90
12303;DHT22;6214;48.012;7.862;2023-08-01T00:24:24;21.20;99.90
12303;DHT22;6214;48.012;7.862;2023-08-01T00:26:51;21.10;99.90
12303;DHT22;6214;48.012;7.862;2023-08-01T00:29:22;21.10;99.90
12303;DHT22;6214;48.012;7.862;2023-08-01T00:31:49;21.10;99.90
12303;DHT22;6214;48.012;7.862;2023-08-01T00:34:17;21.20;99.90
12303;DHT22;6214;48.012;7.862;2023-08-01T00:36:43;21.20;99.90
12303;DHT22;6214;48.012;7.862;2023-08-01T00:39:10;21.10;99.90
12303;DHT22;6214;48.012;7.862;2023-08-01T00:41:37;21.10;99.90
12303;DHT22;6214;48.012;7.862;2023-08-01T00:44:04;21.20;99.90
12303;DHT22;6214;48.012;7.862;2023-08-01T00:46:32;21.10;99.90
12303;DHT22;6214;48.012;7.862;2023-08-01T00:48:59;21.00;99.90
12303;DHT22;6214;48.012;7.862;2023-08-01T00:51:27;20.90;99.90
12303;DHT22;6214;48.012;7.862;2023-08-01T00:53:56;20.80;99.90
12303;DHT22;6214;48.012;7.862;2023-08-01T00:56:23;20.70;99.90
12303;DHT22;6214;48.012;7.862;2023-08-01T00:58:50;20.70;99.90
12303;DHT22;6214;48.012;7.862;2023-08-01T01:01:17;20.70;99.90
12303;DHT22;6214;48.012;7.862;2023-08-01T01:03:44;20.60;99.90
12303;DHT22;6214;48.012;7.862;2023-08-01T01:06:13;20.60;99.90
12303;DHT22;6214;48.012;7.862;2023-08-01T01:08:43;20.70;99.90
12303;DHT22;6214;48.012;7.862;2023-08-01T01:11:10;20.70;99.90
12303;DHT22;6214;48.012;7.862;2023-08-01T01:13:37;20.70;99.90
12303;DHT22;6214;48.012;7.862;2023-08-01T01:16:04;20.70;99.90
12303;DHT22;6214;48.012;7.862;2023-08-01T01:18:31;20.70;99.90
12303;DHT22;6214;48.012;7.862;2023-08-01T01:20:58;20.80;99.90
12303;DHT22;6214;48.012;7.862;2023-08-01T01:23:26;20.70;99.90
12303;DHT22;6214;48.012;7.862;2023-08-01T01:25:54;20.60;99.90
12303;DHT22;6214;48.012;7.862;2023-08-01T01:28:23;20.60;99.90
12303;DHT22;6214;48.012;7.862;2023-08-01T01:30:51;20.60;99.90
12303;DHT22;6214;48.012;7.862;2023-08-01T01:33:20;20.70;99.90
12303;DHT22;6214;48.012;7.862;2023-08-01T01:35:47;20.80;99.90
12303;DHT22;6214;48.012;7.862;2023-08-01T01:38:14;20.80;99.90
12303;DHT22;6214;48.012;7.862;2023-08-01T01:40:41;20.90;99.90
12303;DHT22;6214;48.012;7.862;2023-08-01T01:43:08;21.00;99.90
12303;DHT22;6214;48.012;7.862;2023-08-01T01:45:35;21.20;99.90
12303;DHT22;6214;48.012;7.862;2023-08-01T01:48:02;21.30;99.90
12303;DHT22;6214;48.012;7.862;2023-08-01T01:50:29;21.30;99.90
12303;DHT22;6214;48.012;7.862;2023-08-01T01:52:56;21.40;99.90
12303;DHT22;6214;48.012;7.862;2023-08-01T01:55:23;21.50;99.90
12303;DHT22;6214;48.012;7.862;2023-08-01T01:57:50;21.50;99.90
12303;DHT22;6214;48.012;7.862;2023-08-01T02:00:16;21.50;99.90
12303;DHT22;6214;48.012;7.862;2023-08-01T02:02:43;21.50;99.90
12303;DHT22;6214;48.012;7.862;2023-08-01T02:05:10;21.60;99.90
12303;DHT22;6214;48.012;7.862;2023-08-01T02:07:37;21.70;99.90
12303;DHT22;6214;48.012;7.862;2023-08-01T02:10:04;21.70;99.90
12303;DHT22;6214;48.012;7.862;2023-08-01T02:12:31;21.70;99.90
12303;DHT22;6214;48.012;7.862;2023-08-01T02:14:58;21.80;99.90
12303;DHT22;6214;48.012;7.862;2023-08-01T02:17:25;21.80;99.90
12303;DHT22;6214;48.012;7.862;2023-08-01T02:19:52;20.70;99.90
12303;DHT22;6214;48.012;7.862;2023-08-01T02:22:19;21.80;99.90
12303;DHT22;6214;48.012;7.862;2023-08-01T02:24:46;21.80;99.90
12303;DHT22;6214;48.012;7.862;2023-08-01T02:27:13;21.80;99.90
12303;DHT22;6214;48.012;7.862;2023-08-01T02:29:40;21.80;99.90
12303;DHT22;6214;48.012;7.862;2023-08-01T02:32:07;21.80;99.90
12303;DHT22;6214;48.012;7.862;2023-08-01T02:34:34;21.80;99.90
12303;DHT22;6214;48.012;7.862;2023-08-01T02:37:01;21.80;99.90
12303;DHT22;6214;48.012;7.862;2023-08-01T02:39:27;21.90;99.90
12303;DHT22;6214;48.012;7.862;2023-08-01T02:41:54;21.80;99.90
12303;DHT22;6214;48.012;7.862;2023-08-01T02:44:21;21.70;99.90
12303;DHT22;6214;48.012;7.862;2023-08-01T02:46:48;21.80;99.90
12303;DHT22;6214;48.012;7.862;2023-08-01T02:49:15;21.90;99.90
12303;DHT22;6214;48.012;7.862;2023-08-01T02:51:41;21.90;99.90
12303;DHT22;6214;48.012;7.862;2023-08-01T02:54:08;21.90;99.90
12303;DHT22;6214;48.012;7.862;2023-08-01T02:56:35;21.80;99.90
12303;DHT22;6214;48.012;7.862;2023-08-01T02:59:08;21.90;99.90
12303;DHT22;6214;48.012;7.862;2023-08-01T03:01:36;21.80;99.90
12303;DHT22;6214;48.012;7.862;2023-08-01T03:04:03;21.80;99.90
12303;DHT22;6214;48.012;7.862;2023-08-01T03:06:31;21.80;99.90
12303;DHT22;6214;48.012;7.862;2023-08-01T03:08:59;21.80;99.90
12303;DHT22;6214;48.012;7.862;2023-08-01T03:11:26;21.80;99.90
12303;DHT22;6214;48.012;7.862;2023-08-01T03:13:53;21.70;99.90
12303;DHT22;6214;48.012;7.862;2023-08-01T03:16:20;21.60;99.90
12303;DHT22;6214;48.012;7.862;2023-08-01T03:18:47;21.70;99.90
12303;DHT22;6214;48.012;7.862;2023-08-01T03:21:14;21.60;99.90
12303;DHT22;6214;48.012;7.862;2023-08-01T03:23:40;21.60;99.90
12303;DHT22;6214;48.012;7.862;2023-08-01T03:26:07;21.50;99.90
12303;DHT22;6214;48.012;7.862;2023-08-01T03:28:34;21.50;99.90
12303;DHT22;6214;48.012;7.862;2023-08-01T03:31:01;21.40;99.90
12303;DHT22;6214;48.012;7.862;2023-08-01T03:33:28;21.30;99.90
12303;DHT22;6214;48.012;7.862;2023-08-01T03:35:55;21.10;99.90
12303;DHT22;6214;48.012;7.862;2023-08-01T03:38:22;21.00;99.90
12303;DHT22;6214;48.012;7.862;2023-08-01T03:40:49;20.90;99.90
12303;DHT22;6214;48.012;7.862;2023-08-01T03:43:16;20.80;99.90
12303;DHT22;6214;48.012;7.862;2023-08-01T03:45:43;20.90;99.90
12303;DHT22;6214;48.012;7.862;2023-08-01T03:48:10;20.80;99.90
12303;DHT22;6214;48.012;7.862;2023-08-01T03:50:38;20.80;99.90
12303;DHT22;6214;48.012;7.862;2023-08-01T03:53:04;20.90;99.90
12303;DHT22;6214;48.012;7.862;2023-08-01T03:55:31;20.90;99.90
12303;DHT22;6214;48.012;7.862;2023-08-01T03:57:58;20.90;99.90
12303;DHT22;6214;48.012;7.862;2023-08-01T04:00:25;20.80;99.90
12303;DHT22;6214;48.012;7.862;2023-08-01T04:02:59;20.80;99.90
12303;DHT22;6214;48.012;7.862;2023-08-01T04:05:26;20.80;99.90
12303;DHT22;6214;48.012;7.862;2023-08-01T04:07:53;20.80;99.90
12303;DHT22;6214;48.012;7.862;2023-08-01T04:10:22;20.80;99.90
12303;DHT22;6214;48.012;7.862;2023-08-01T04:12:49;20.80;99.90
12303;DHT22;6214;48.012;7.862;2023-08-01T04:15:16;20.70;99.90
12303;DHT22;6214;48.012;7.862;2023-08-01T04:17:43;20.60;99.90
12303;DHT22;6214;48.012;7.862;2023-08-01T04:20:10;20.60;99.90
12303;DHT22;6214;48.012;7.862;2023-08-01T04:22:37;20.50;99.90
12303;DHT22;6214;48.012;7.862;2023-08-01T04:25:04;20.50;99.90
12303;DHT22;6214;48.012;7.862;2023-08-01T04:27:31;20.30;99.90
12303;DHT22;6214;48.012;7.862;2023-08-01T04:29:58;20.30;99.90
12303;DHT22;6214;48.012;7.862;2023-08-01T04:32:24;20.10;99.90
12303;DHT22;6214;48.012;7.862;2023-08-01T04:34:51;20.00;99.90
12303;DHT22;6214;48.012;7.862;2023-08-01T04:37:18;19.90;99.90
12303;DHT22;6214;48.012;7.862;2023-08-01T04:39:49;19.90;99.90
12303;DHT22;6214;48.012;7.862;2023-08-01T04:42:15;19.90;99.90
12303;DHT22;6214;48.012;7.862;2023-08-01T04:44:42;19.80;99.90
12303;DHT22;6214;48.012;7.862;2023-08-01T04:47:09;19.70;99.90
12303;DHT22;6214;48.012;7.862;2023-08-01T04:49:36;19.60;99.90
12303;DHT22;6214;48.012;7.862;2023-08-01T04:52:03;19.50;99.90
12303;DHT22;6214;48.012;7.862;2023-08-01T04:54:33;19.40;99.90
12303;DHT22;6214;48.012;7.862;2023-08-01T04:57:00;19.30;99.90
12303;DHT22;6214;48.012;7.862;2023-08-01T04:59:27;19.30;99.90
12303;DHT22;6214;48.012;7.862;2023-08-01T05:01:54;19.20;99.90
12303;DHT22;6214;48.012;7.862;2023-08-01T05:04:21;19.10;99.90
12303;DHT22;6214;48.012;7.862;2023-08-01T05:06:48;18.90;99.90
12303;DHT22;6214;48.012;7.862;2023-08-01T05:09:15;18.70;99.90
12303;DHT22;6214;48.012;7.862;2023-08-01T05:11:41;18.70;99.90
12303;DHT22;6214;48.012;7.862;2023-08-01T05:14:08;18.50;99.90
12303;DHT22;6214;48.012;7.862;2023-08-01T05:16:35;18.40;99.90
12303;DHT22;6214;48.012;7.862;2023-08-01T05:19:02;18.40;99.90
12303;DHT22;6214;48.012;7.862;2023-08-01T05:21:29;18.30;99.90
12303;DHT22;6214;48.012;7.862;2023-08-01T05:23:56;18.40;99.90
12303;DHT22;6214;48.012;7.862;2023-08-01T05:26:23;18.40;99.90
12303;DHT22;6214;48.012;7.862;2023-08-01T05:28:51;18.40;99.90
12303;DHT22;6214;48.012;7.862;2023-08-01T05:31:17;18.30;99.90
12303;DHT22;6214;48.012;7.862;2023-08-01T05:33:44;18.40;99.90
12303;DHT22;6214;48.012;7.862;2023-08-01T05:36:11;18.40;99.90
12303;DHT22;6214;48.012;7.862;2023-08-01T05:38:38;18.30;99.90
12303;DHT22;6214;48.012;7.862;2023-08-01T05:41:05;18.30;99.90
12303;DHT22;6214;48.012;7.862;2023-08-01T05:43:32;18.30;99.90
12303;DHT22;6214;48.012;7.862;2023-08-01T05:45:59;18.20;99.90
12303;DHT22;6214;48.012;7.862;2023-08-01T05:48:26;18.20;99.90
12303;DHT22;6214;48.012;7.862;2023-08-01T05:50:53;18.20;99.90
12303;DHT22;6214;48.012;7.862;2023-08-01T05:53:22;18.30;99.90
12303;DHT22;6214;48.012;7.862;2023-08-01T05:55:49;18.30;99.90
12303;DHT22;6214;48.012;7.862;2023-08-01T05:58:16;18.20;99.90
12303;DHT22;6214;48.012;7.862;2023-08-01T06:00:43;18.40;99.90
12303;DHT22;6214;48.012;7.862;2023-08-01T06:03:10;18.40;99.90
12303;DHT22;6214;48.012;7.862;2023-08-01T06:05:37;18.40;99.90
12303;DHT22;6214;48.012;7.862;2023-08-01T06:08:06;18.40;99.90
12303;DHT22;6214;48.012;7.862;2023-08-01T06:10:34;18.40;99.90
12303;DHT22;6214;48.012;7.862;2023-08-01T06:13:01;18.40;99.90
12303;DHT22;6214;48.012;7.862;2023-08-01T06:15:27;18.40;99.90
12303;DHT22;6214;48.012;7.862;2023-08-01T06:17:54;18.50;99.90
12303;DHT22;6214;48.012;7.862;2023-08-01T06:20:21;18.60;99.90
12303;DHT22;6214;48.012;7.862;2023-08-01T06:22:48;18.60;99.90
12303;DHT22;6214;48.012;7.862;2023-08-01T06:25:15;18.60;99.90
12303;DHT22;6214;48.012;7.862;2023-08-01T06:27:42;18.60;99.90
12303;DHT22;6214;48.012;7.862;2023-08-01T06:30:09;18.60;99.90
12303;DHT22;6214;48.012;7.862;2023-08-01T06:32:36;18.50;99.90
12303;DHT22;6214;48.012;7.862;2023-08-01T06:35:04;18.40;99.90
12303;DHT22;6214;48.012;7.862;2023-08-01T06:37:30;18.50;99.90
12303;DHT22;6214;48.012;7.862;2023-08-01T06:39:58;18.50;99.90
12303;DHT22;6214;48.012;7.862;2023-08-01T06:42:26;18.60;99.90
12303;DHT22;6214;48.012;7.862;2023-08-01T06:44:52;18.70;99.90
12303;DHT22;6214;48.012;7.862;2023-08-01T06:47:19;18.60;99.90
12303;DHT22;6214;48.012;7.862;2023-08-01T06:49:46;18.60;99.90
12303;DHT22;6214;48.012;7.862;2023-08-01T06:52:13;18.60;99.90
12303;DHT22;6214;48.012;7.862;2023-08-01T06:54:40;18.60;99.90
12303;DHT22;6214;48.012;7.862;2023-08-01T06:57:07;18.60;99.90
12303;DHT22;6214;48.012;7.862;2023-08-01T06:59:34;18.70;99.90
12303;DHT22;6214;48.012;7.862;2023-08-01T07:02:01;18.70;99.90
12303;DHT22;6214;48.012;7.862;2023-08-01T07:04:28;18.70;99.90
12303;DHT22;6214;48.012;7.862;2023-08-01T07:06:55;18.70;99.90
12303;DHT22;6214;48.012;7.862;2023-08-01T07:09:21;18.80;99.90
12303;DHT22;6214;48.012;7.862;2023-08-01T07:11:48;19.10;99.90
12303;DHT22;6214;48.012;7.862;2023-08-01T07:14:15;19.00;99.90
12303;DHT22;6214;48.012;7.862;2023-08-01T07:16:42;19.20;99.90
12303;DHT22;6214;48.012;7.862;2023-08-01T07:19:09;19.10;99.90
12303;DHT22;6214;48.012;7.862;2023-08-01T07:21:36;19.10;99.90
12303;DHT22;6214;48.012;7.862;2023-08-01T07:24:03;19.10;99.90
12303;DHT22;6214;48.012;7.862;2023-08-01T07:26:30;19.00;99.90
12303;DHT22;6214;48.012;7.862;2023-08-01T07:28:56;18.90;99.90
12303;DHT22;6214;48.012;7.862;2023-08-01T07:31:23;18.90;99.90
12303;DHT22;6214;48.012;7.862;2023-08-01T07:33:50;18.90;99.90
12303;DHT22;6214;48.012;7.862;2023-08-01T07:36:17;18.70;99.90
12303;DHT22;6214;48.012;7.862;2023-08-01T07:38:44;18.60;99.90
12303;DHT22;6214;48.012;7.862;2023-08-01T07:41:11;18.50;99.90
12303;DHT22;6214;48.012;7.862;2023-08-01T07:43:37;18.30;99.90
12303;DHT22;6214;48.012;7.862;2023-08-01T07:46:04;18.30;99.90
12303;DHT22;6214;48.012;7.862;2023-08-01T07:48:31;18.20;99.90
12303;DHT22;6214;48.012;7.862;2023-08-01T07:50:58;18.10;99.90
12303;DHT22;6214;48.012;7.862;2023-08-01T07:53:25;18.00;99.90
12303;DHT22;6214;48.012;7.862;2023-08-01T07:55:53;17.90;99.90
12303;DHT22;6214;48.012;7.862;2023-08-01T07:58:20;17.80;99.90
12303;DHT22;6214;48.012;7.862;2023-08-01T08:00:46;17.80;99.90
12303;DHT22;6214;48.012;7.862;2023-08-01T08:03:14;17.80;99.90
12303;DHT22;6214;48.012;7.862;2023-08-01T08:05:41;17.70;99.90
12303;DHT22;6214;48.012;7.862;2023-08-01T08:08:08;17.70;99.90
12303;DHT22;6214;48.012;7.862;2023-08-01T08:10:35;17.70;99.90
12303;DHT22;6214;48.012;7.862;2023-08-01T08:13:02;17.60;99.90
12303;DHT22;6214;48.012;7.862;2023-08-01T08:15:28;17.70;99.90
12303;DHT22;6214;48.012;7.862;2023-08-01T08:18:00;17.70;99.90
12303;DHT22;6214;48.012;7.862;2023-08-01T08:20:33;17.80;99.90
12303;DHT22;6214;48.012;7.862;2023-08-01T08:23:00;17.80;99.90
12303;DHT22;6214;48.012;7.862;2023-08-01T08:25:26;17.80;99.90
12303;DHT22;6214;48.012;7.862;2023-08-01T08:27:53;17.70;99.90
12303;DHT22;6214;48.012;7.862;2023-08-01T08:30:20;17.90;99.90
12303;DHT22;6214;48.012;7.862;2023-08-01T08:32:47;18.00;99.90
12303;DHT22;6214;48.012;7.862;2023-08-01T08:35:14;18.10;99.90
12303;DHT22;6214;48.012;7.862;2023-08-01T08:37:41;18.20;99.90
12303;DHT22;6214;48.012;7.862;2023-08-01T08:40:08;18.10;99.90
12303;DHT22;6214;48.012;7.862;2023-08-01T08:42:35;18.30;99.90
12303;DHT22;6214;48.012;7.862;2023-08-01T08:45:02;18.40;99.90
12303;DHT22;6214;48.012;7.862;2023-08-01T08:47:31;18.50;99.90
12303;DHT22;6214;48.012;7.862;2023-08-01T08:50:02;18.40;99.90
12303;DHT22;6214;48.012;7.862;2023-08-01T08:52:30;18.40;99.90
12303;DHT22;6214;48.012;7.862;2023-08-01T08:54:57;18.40;99.90
12303;DHT22;6214;48.012;7.862;2023-08-01T08:57:25;18.50;99.90
12303;DHT22;6214;48.012;7.862;2023-08-01T08:59:52;18.50;99.90
12303;DHT22;6214;48.012;7.862;2023-08-01T09:02:20;18.60;99.90
12303;DHT22;6214;48.012;7.862;2023-08-01T09:04:47;18.60;99.90
12303;DHT22;6214;48.012;7.862;2023-08-01T09:07:15;18.60;99.90
12303;DHT22;6214;48.012;7.862;2023-08-01T09:09:43;18.70;99.90
12303;DHT22;6214;48.012;7.862;2023-08-01T09:12:10;18.70;99.90
12303;DHT22;6214;48.012;7.862;2023-08-01T09:14:38;18.70;99.90
12303;DHT22;6214;48.012;7.862;2023-08-01T09:17:08;18.80;99.90
12303;DHT22;6214;48.012;7.862;2023-08-01T09:19:35;18.80;99.90
12303;DHT22;6214;48.012;7.862;2023-08-01T09:22:13;18.90;99.90
12303;DHT22;6214;48.012;7.862;2023-08-01T09:24:51;18.90;99.90
12303;DHT22;6214;48.012;7.862;2023-08-01T09:27:17;19.00;99.90
12303;DHT22;6214;48.012;7.862;2023-08-01T09:29:44;19.10;99.90
12303;DHT22;6214;48.012;7.862;2023-08-01T09:32:12;19.20;99.90
12303;DHT22;6214;48.012;7.862;2023-08-01T09:34:41;19.30;99.90
12303;DHT22;6214;48.012;7.862;2023-08-01T09:37:09;19.30;99.90
12303;DHT22;6214;48.012;7.862;2023-08-01T09:39:36;19.30;99.90
12303;DHT22;6214;48.012;7.862;2023-08-01T09:42:03;19.30;99.90
12303;DHT22;6214;48.012;7.862;2023-08-01T09:44:30;19.40;99.90
12303;DHT22;6214;48.012;7.862;2023-08-01T09:47:04;19.40;99.90
12303;DHT22;6214;48.012;7.862;2023-08-01T09:49:33;19.40;99.90
12303;DHT22;6214;48.012;7.862;2023-08-01T09:52:01;19.50;99.90
12303;DHT22;6214;48.012;7.862;2023-08-01T09:54:28;19.50;99.90
12303;DHT22;6214;48.012;7.862;2023-08-01T09:56:55;19.60;99.90
12303;DHT22;6214;48.012;7.862;2023-08-01T09:59:24;19.60;99.90
12303;DHT22;6214;48.012;7.862;2023-08-01T10:01:53;19.70;99.90
12303;DHT22;6214;48.012;7.862;2023-08-01T10:06:57;19.70;99.90
12303;DHT22;6214;48.012;7.862;2023-08-01T10:09:26;19.70;99.90
12303;DHT22;6214;48.012;7.862;2023-08-01T10:11:56;19.70;99.90
12303;DHT22;6214;48.012;7.862;2023-08-01T10:14:23;19.70;99.90
12303;DHT22;6214;48.012;7.862;2023-08-01T10:16:51;19.80;99.90
12303;DHT22;6214;48.012;7.862;2023-08-01T10:19:19;19.80;99.90
12303;DHT22;6214;48.012;7.862;2023-08-01T10:21:47;19.90;99.90
12303;DHT22;6214;48.012;7.862;2023-08-01T10:24:15;20.10;99.90
12303;DHT22;6214;48.012;7.862;2023-08-01T10:26:46;20.20;99.90
12303;DHT22;6214;48.012;7.862;2023-08-01T10:29:13;20.30;99.90
12303;DHT22;6214;48.012;7.862;2023-08-01T10:31:51;20.30;99.90
12303;DHT22;6214;48.012;7.862;2023-08-01T10:34:19;20.20;99.90
12303;DHT22;6214;48.012;7.862;2023-08-01T10:36:55;20.20;99.90
12303;DHT22;6214;48.012;7.862;2023-08-01T10:39:23;20.20;99.90
12303;DHT22;6214;48.012;7.862;2023-08-01T10:42:01;20.30;99.90
12303;DHT22;6214;48.012;7.862;2023-08-01T10:44:28;20.70;99.90
12303;DHT22;6214;48.012;7.862;2023-08-01T10:49:39;21.20;99.90
12303;DHT22;6214;48.012;7.862;2023-08-01T10:52:16;21.20;99.90
12303;DHT22;6214;48.012;7.862;2023-08-01T10:54:45;21.40;99.90
12303;DHT22;6214;48.012;7.862;2023-08-01T10:57:16;21.60;99.90
12303;DHT22;6214;48.012;7.862;2023-08-01T10:59:44;21.60;99.90
12303;DHT22;6214;48.012;7.862;2023-08-01T11:02:11;21.70;99.90
12303;DHT22;6214;48.012;7.862;2023-08-01T11:04:38;21.90;99.90
12303;DHT22;6214;48.012;7.862;2023-08-01T11:07:05;22.10;99.90
12303;DHT22;6214;48.012;7.862;2023-08-01T11:09:32;22.40;99.90
12303;DHT22;6214;48.012;7.862;2023-08-01T11:11:59;22.20;99.90
12303;DHT22;6214;48.012;7.862;2023-08-01T11:14:28;22.00;99.90
12303;DHT22;6214;48.012;7.862;2023-08-01T11:16:56;21.70;99.90
12303;DHT22;6214;48.012;7.862;2023-08-01T11:19:25;21.60;99.90
12303;DHT22;6214;48.012;7.862;2023-08-01T11:21:52;21.60;99.90
12303;DHT22;6214;48.012;7.862;2023-08-01T11:24:20;21.60;99.90
12303;DHT22;6214;48.012;7.862;2023-08-01T11:26:48;21.50;99.90
12303;DHT22;6214;48.012;7.862;2023-08-01T11:29:17;21.40;99.90
12303;DHT22;6214;48.012;7.862;2023-08-01T11:31:58;21.30;99.90
12303;DHT22;6214;48.012;7.862;2023-08-01T11:34:26;21.10;99.90
12303;DHT22;6214;48.012;7.862;2023-08-01T11:36:55;21.30;99.90
12303;DHT22;6214;48.012;7.862;2023-08-01T11:39:22;21.30;99.90
12303;DHT22;6214;48.012;7.862;2023-08-01T11:41:51;21.20;99.90
12303;DHT22;6214;48.012;7.862;2023-08-01T11:44:23;21.10;99.90
12303;DHT22;6214;48.012;7.862;2023-08-01T11:46:50;21.10;99.90
12303;DHT22;6214;48.012;7.862;2023-08-01T11:49:17;21.20;99.90
12303;DHT22;6214;48.012;7.862;2023-08-01T11:51:45;21.30;99.90
12303;DHT22;6214;48.012;7.862;2023-08-01T11:54:13;21.40;99.90
12303;DHT22;6214;48.012;7.862;2023-08-01T11:56:41;21.50;99.90
12303;DHT22;6214;48.012;7.862;2023-08-01T11:59:10;21.60;99.90
12303;DHT22;6214;48.012;7.862;2023-08-01T12:01:42;21.60;99.90
12303;DHT22;6214;48.012;7.862;2023-08-01T12:04:09;21.70;99.90
12303;DHT22;6214;48.012;7.862;2023-08-01T12:06:37;21.70;99.90
12303;DHT22;6214;48.012;7.862;2023-08-01T12:09:11;21.60;99.90
12303;DHT22;6214;48.012;7.862;2023-08-01T12:11:39;21.40;99.90
12303;DHT22;6214;48.012;7.862;2023-08-01T12:16:37;21.60;99.90
12303;DHT22;6214;48.012;7.862;2023-08-01T12:19:05;21.50;99.90
12303;DHT22;6214;48.012;7.862;2023-08-01T12:21:33;21.40;99.90
12303;DHT22;6214;48.012;7.862;2023-08-01T12:24:00;21.40;99.90
12303;DHT22;6214;48.012;7.862;2023-08-01T12:26:27;21.50;99.90
12303;DHT22;6214;48.012;7.862;2023-08-01T12:28:54;21.70;99.90
12303;DHT22;6214;48.012;7.862;2023-08-01T12:31:22;21.90;99.90
12303;DHT22;6214;48.012;7.862;2023-08-01T12:33:49;22.00;99.90
12303;DHT22;6214;48.012;7.862;2023-08-01T12:36:16;22.30;99.90
12303;DHT22;6214;48.012;7.862;2023-08-01T12:38:43;22.50;99.90
12303;DHT22;6214;48.012;7.862;2023-08-01T12:41:10;22.70;99.90
12303;DHT22;6214;48.012;7.862;2023-08-01T12:43:37;22.80;99.90
12303;DHT22;6214;48.012;7.862;2023-08-01T12:46:04;22.60;99.90
12303;DHT22;6214;48.012;7.862;2023-08-01T12:48:31;22.40;99.90
12303;DHT22;6214;48.012;7.862;2023-08-01T12:50:57;22.50;99.90
12303;DHT22;6214;48.012;7.862;2023-08-01T12:53:24;22.80;99.90
12303;DHT22;6214;48.012;7.862;2023-08-01T12:55:51;23.00;99.90
12303;DHT22;6214;48.012;7.862;2023-08-01T12:58:18;23.20;99.90
12303;DHT22;6214;48.012;7.862;2023-08-01T13:00:45;23.40;99.90
12303;DHT22;6214;48.012;7.862;2023-08-01T13:03:12;23.50;99.90
12303;DHT22;6214;48.012;7.862;2023-08-01T13:05:41;23.10;99.90
12303;DHT22;6214;48.012;7.862;2023-08-01T13:08:09;22.80;99.90
12303;DHT22;6214;48.012;7.862;2023-08-01T13:10:37;22.40;99.90
12303;DHT22;6214;48.012;7.862;2023-08-01T13:13:05;22.10;99.90
12303;DHT22;6214;48.012;7.862;2023-08-01T13:15:32;22.10;99.90
12303;DHT22;6214;48.012;7.862;2023-08-01T13:17:59;21.90;99.90
12303;DHT22;6214;48.012;7.862;2023-08-01T13:20:26;21.80;99.90
12303;DHT22;6214;48.012;7.862;2023-08-01T13:22:56;21.80;99.90
12303;DHT22;6214;48.012;7.862;2023-08-01T13:25:23;21.80;99.90
12303;DHT22;6214;48.012;7.862;2023-08-01T13:27:50;21.60;99.90
12303;DHT22;6214;48.012;7.862;2023-08-01T13:30:16;21.50;99.90
12303;DHT22;6214;48.012;7.862;2023-08-01T13:32:46;21.30;99.90
12303;DHT22;6214;48.012;7.862;2023-08-01T13:35:14;21.00;99.90
12303;DHT22;6214;48.012;7.862;2023-08-01T13:37:41;20.80;99.90
12303;DHT22;6214;48.012;7.862;2023-08-01T13:40:08;20.70;99.90
12303;DHT22;6214;48.012;7.862;2023-08-01T13:42:38;20.80;99.90
12303;DHT22;6214;48.012;7.862;2023-08-01T13:45:05;20.90;99.90
12303;DHT22;6214;48.012;7.862;2023-08-01T13:47:32;21.00;99.90
12303;DHT22;6214;48.012;7.862;2023-08-01T13:49:59;21.10;99.90
12303;DHT22;6214;48.012;7.862;2023-08-01T13:52:26;21.20;99.90
12303;DHT22;6214;48.012;7.862;2023-08-01T13:54:53;21.30;99.90
12303;DHT22;6214;48.012;7.862;2023-08-01T13:57:20;21.50;99.90
12303;DHT22;6214;48.012;7.862;2023-08-01T13:59:50;21.50;99.90
12303;DHT22;6214;48.012;7.862;2023-08-01T14:02:32;21.50;99.90
12303;DHT22;6214;48.012;7.862;2023-08-01T14:04:59;21.50;99.90
12303;DHT22;6214;48.012;7.862;2023-08-01T14:07:26;21.50;99.90
12303;DHT22;6214;48.012;7.862;2023-08-01T14:09:52;21.50;99.90
12303;DHT22;6214;48.012;7.862;2023-08-01T14:12:19;21.40;99.90
12303;DHT22;6214;48.012;7.862;2023-08-01T14:14:46;21.60;99.90
12303;DHT22;6214;48.012;7.862;2023-08-01T14:17:13;21.60;99.90
12303;DHT22;6214;48.012;7.862;2023-08-01T14:19:40;21.70;99.90
12303;DHT22;6214;48.012;7.862;2023-08-01T14:22:07;21.80;99.90
12303;DHT22;6214;48.012;7.862;2023-08-01T14:24:34;22.00;99.90
12303;DHT22;6214;48.012;7.862;2023-08-01T14:27:00;22.10;99.90
12303;DHT22;6214;48.012;7.862;2023-08-01T14:29:27;22.10;99.90
12303;DHT22;6214;48.012;7.862;2023-08-01T14:31:54;22.00;99.90
12303;DHT22;6214;48.012;7.862;2023-08-01T14:34:21;21.90;99.90
12303;DHT22;6214;48.012;7.862;2023-08-01T14:36:48;21.90;99.90
12303;DHT22;6214;48.012;7.862;2023-08-01T14:39:15;21.80;99.90
12303;DHT22;6214;48.012;7.862;2023-08-01T14:41:48;21.90;99.90
12303;DHT22;6214;48.012;7.862;2023-08-01T14:44:31;21.80;99.90
12303;DHT22;6214;48.012;7.862;2023-08-01T14:46:58;21.80;99.90
12303;DHT22;6214;48.012;7.862;2023-08-01T14:49:25;21.70;99.90
12303;DHT22;6214;48.012;7.862;2023-08-01T14:51:54;21.40;99.90
12303;DHT22;6214;48.012;7.862;2023-08-01T14:54:21;21.20;99.90
12303;DHT22;6214;48.012;7.862;2023-08-01T14:57:06;21.60;99.90
12303;DHT22;6214;48.012;7.862;2023-08-01T14:59:33;21.20;99.90
12303;DHT22;6214;48.012;7.862;2023-08-01T15:02:00;21.20;99.90
12303;DHT22;6214;48.012;7.862;2023-08-01T15:04:27;21.20;99.90
12303;DHT22;6214;48.012;7.862;2023-08-01T15:06:54;21.20;99.90
12303;DHT22;6214;48.012;7.862;2023-08-01T15:09:21;21.20;99.90
12303;DHT22;6214;48.012;7.862;2023-08-01T15:11:48;21.20;99.90
12303;DHT22;6214;48.012;7.862;2023-08-01T15:14:15;21.20;99.90
12303;DHT22;6214;48.012;7.862;2023-08-01T15:16:42;21.20;99.90
12303;DHT22;6214;48.012;7.862;2023-08-01T15:19:09;21.20;99.90
12303;DHT22;6214;48.012;7.862;2023-08-01T15:21:36;21.30;99.90
12303;DHT22;6214;48.012;7.862;2023-08-01T15:24:03;21.40;99.90
12303;DHT22;6214;48.012;7.862;2023-08-01T15:26:30;21.40;99.90
12303;DHT22;6214;48.012;7.862;2023-08-01T15:28:56;21.40;99.90
12303;DHT22;6214;48.012;7.862;2023-08-01T15:31:23;21.50;99.90
12303;DHT22;6214;48.012;7.862;2023-08-01T15:33:51;21.70;99.90
12303;DHT22;6214;48.012;7.862;2023-08-01T15:36:26;21.80;99.90
12303;DHT22;6214;48.012;7.862;2023-08-01T15:38:53;21.90;99.90
12303;DHT22;6214;48.012;7.862;2023-08-01T15:41:22;21.90;99.90
12303;DHT22;6214;48.012;7.862;2023-08-01T15:43:48;21.80;99.90
12303;DHT22;6214;48.012;7.862;2023-08-01T15:46:15;21.70;99.90
12303;DHT22;6214;48.012;7.862;2023-08-01T15:48:42;21.70;99.90
12303;DHT22;6214;48.012;7.862;2023-08-01T15:51:09;21.60;99.90
12303;DHT22;6214;48.012;7.862;2023-08-01T15:53:37;21.50;99.90
12303;DHT22;6214;48.012;7.862;2023-08-01T15:56:06;21.40;99.90